createdAt,value
2023-04-08T00:00:28.183Z,3.10
2023-04-08T00:02:54.582Z,2.88
2023-04-08T00:05:20.895Z,2.30
2023-04-08T00:07:47.162Z,2.10
2023-04-08T00:10:13.471Z,3.03
2023-04-08T00:12:39.826Z,2.50
2023-04-08T00:15:06.533Z,2.70
2023-04-08T00:17:33.176Z,2.35
2023-04-08T00:20:00.150Z,2.45
2023-04-08T00:22:26.461Z,2.58
2023-04-08T00:24:52.713Z,2.80
2023-04-08T00:27:18.986Z,2.53
2023-04-08T00:29:45.253Z,2.35
2023-04-08T00:32:11.919Z,3.00
2023-04-08T00:34:38.597Z,2.83
2023-04-08T00:37:04.926Z,2.47
2023-04-08T00:39:31.338Z,2.63
2023-04-08T00:41:57.791Z,2.58
2023-04-08T00:44:24.069Z,2.40
2023-04-08T00:46:50.361Z,2.78
2023-04-08T00:49:17.494Z,2.50
2023-04-08T00:51:43.852Z,3.20
2023-04-08T00:54:10.270Z,2.58
2023-04-08T00:56:36.682Z,2.72
2023-04-08T00:59:03.443Z,2.60
2023-04-08T01:01:48.938Z,2.90
2023-04-08T01:04:15.408Z,2.55
2023-04-08T01:06:47.069Z,2.70
2023-04-08T01:09:13.919Z,2.20
2023-04-08T01:11:43.391Z,2.55
2023-04-08T01:14:11.920Z,2.45
2023-04-08T01:16:41.678Z,2.53
2023-04-08T01:19:11.802Z,2.90
2023-04-08T01:21:38.768Z,3.00
2023-04-08T01:24:19.875Z,2.80
2023-04-08T01:26:46.950Z,2.25
2023-04-08T01:29:13.856Z,3.17
2023-04-08T01:31:41.397Z,3.30
2023-04-08T01:34:08.123Z,2.42
2023-04-08T01:36:36.041Z,2.80
2023-04-08T01:39:03.008Z,2.38
2023-04-08T01:41:30.345Z,2.35
2023-04-08T01:43:57.074Z,2.60
2023-04-08T01:46:23.472Z,2.58
2023-04-08T01:48:50.891Z,2.67
2023-04-08T01:51:17.807Z,3.22
2023-04-08T01:53:44.241Z,2.83
2023-04-08T01:56:12.882Z,2.80
2023-04-08T01:58:43.527Z,2.60
2023-04-08T02:01:14.635Z,3.08
2023-04-08T02:03:42.665Z,2.78
2023-04-08T02:06:09.054Z,2.80
2023-04-08T02:08:38.507Z,3.40
2023-04-08T02:11:04.844Z,3.63
2023-04-08T02:13:31.617Z,2.83
2023-04-08T02:16:03.374Z,3.20
2023-04-08T02:18:31.692Z,2.97
2023-04-08T02:21:03.110Z,3.05
2023-04-08T02:23:30.502Z,2.70
2023-04-08T02:25:56.820Z,2.83
2023-04-08T02:28:23.589Z,2.97
2023-04-08T02:30:52.841Z,3.13
2023-04-08T02:33:20.680Z,2.90
2023-04-08T02:35:49.672Z,2.92
2023-04-08T02:38:16.169Z,3.00
2023-04-08T02:40:42.689Z,2.75
2023-04-08T02:43:09.001Z,2.67
2023-04-08T02:45:40.862Z,3.08
2023-04-08T02:48:07.317Z,3.22
2023-04-08T02:50:33.764Z,2.85
2023-04-08T02:53:00.040Z,3.40
2023-04-08T02:55:26.465Z,3.40
2023-04-08T02:57:52.795Z,3.25
2023-04-08T03:00:19.107Z,2.80
2023-04-08T03:02:45.631Z,3.10
2023-04-08T03:05:12.116Z,2.95
2023-04-08T03:07:38.633Z,2.90
2023-04-08T03:10:05.466Z,2.97
2023-04-08T03:12:31.944Z,3.00
2023-04-08T03:14:58.340Z,3.10
2023-04-08T03:17:24.682Z,2.90
2023-04-08T03:19:51.242Z,2.88
2023-04-08T03:22:17.546Z,3.22
2023-04-08T03:24:43.861Z,2.92
2023-04-08T03:27:10.460Z,3.10
2023-04-08T03:29:36.836Z,3.38
2023-04-08T03:32:03.428Z,3.00
2023-04-08T03:34:29.809Z,3.25
2023-04-08T03:36:56.117Z,3.28
2023-04-08T03:39:22.473Z,3.47
2023-04-08T03:41:48.763Z,3.47
2023-04-08T03:44:15.232Z,3.78
2023-04-08T03:46:41.605Z,3.40
2023-04-08T03:49:07.878Z,3.75
2023-04-08T03:51:34.187Z,3.67
2023-04-08T03:54:00.529Z,3.17
2023-04-08T03:56:26.973Z,3.55
2023-04-08T03:58:53.330Z,3.30
2023-04-08T04:01:19.622Z,2.92
2023-04-08T04:03:46.162Z,3.30
2023-04-08T04:06:12.558Z,4.22
2023-04-08T04:08:38.842Z,3.78
2023-04-08T04:11:05.235Z,3.63
2023-04-08T04:13:31.656Z,3.40
2023-04-08T04:15:58.218Z,3.80
2023-04-08T04:18:24.607Z,3.30
2023-04-08T04:20:50.935Z,3.63
2023-04-08T04:23:17.236Z,3.25
2023-04-08T04:25:44.197Z,3.70
2023-04-08T04:28:10.521Z,3.20
2023-04-08T04:30:37.663Z,3.80
2023-04-08T04:33:04.223Z,3.67
2023-04-08T04:35:31.069Z,3.33
2023-04-08T04:37:57.448Z,3.97
2023-04-08T04:40:23.780Z,3.60
2023-04-08T04:42:50.243Z,3.17
2023-04-08T04:45:16.689Z,3.47
2023-04-08T04:47:43.122Z,3.42
2023-04-08T04:50:09.788Z,3.20
2023-04-08T04:52:36.286Z,3.08
2023-04-08T04:55:02.629Z,3.63
2023-04-08T04:57:28.935Z,2.90
2023-04-08T04:59:55.360Z,3.63
2023-04-08T05:02:22.081Z,3.28
2023-04-08T05:04:48.503Z,3.72
2023-04-08T05:07:14.768Z,3.42
2023-04-08T05:09:41.018Z,3.67
2023-04-08T05:12:07.387Z,3.53
2023-04-08T05:14:33.793Z,3.53
2023-04-08T05:17:00.104Z,3.80
2023-04-08T05:19:26.594Z,4.18
2023-04-08T05:21:52.867Z,4.18
2023-04-08T05:24:19.178Z,3.97
2023-04-08T05:26:45.706Z,4.65
2023-04-08T05:29:12.596Z,3.95
2023-04-08T05:31:38.968Z,4.50
2023-04-08T05:34:05.233Z,4.72
2023-04-08T05:36:34.029Z,4.20
2023-04-08T05:39:02.124Z,4.65
2023-04-08T05:41:29.726Z,4.15
2023-04-08T05:43:56.754Z,4.13
2023-04-08T05:46:23.103Z,4.15
2023-04-08T05:48:49.637Z,4.45
2023-04-08T05:51:17.948Z,4.43
2023-04-08T05:53:47.553Z,4.70
2023-04-08T05:56:14.071Z,4.63
2023-04-08T05:58:43.698Z,5.15
2023-04-08T06:01:10.062Z,4.72
2023-04-08T06:03:36.559Z,3.78
2023-04-08T06:06:03.042Z,4.70
2023-04-08T06:08:29.729Z,4.78
2023-04-08T06:10:56.083Z,4.75
2023-04-08T06:13:22.711Z,4.60
2023-04-08T06:15:49.930Z,4.63
2023-04-08T06:18:16.832Z,4.15
2023-04-08T06:20:43.098Z,4.97
2023-04-08T06:23:09.462Z,4.97
2023-04-08T06:25:35.773Z,4.55
2023-04-08T06:28:02.429Z,4.57
2023-04-08T06:30:28.849Z,4.28
2023-04-08T06:32:55.303Z,4.50
2023-04-08T06:35:21.793Z,4.88
2023-04-08T06:37:48.203Z,4.97
2023-04-08T06:40:14.509Z,4.57
2023-04-08T06:42:43.122Z,5.57
2023-04-08T06:45:09.713Z,5.70
2023-04-08T06:47:36.323Z,5.00
2023-04-08T06:50:02.756Z,5.18
2023-04-08T06:52:29.082Z,6.10
2023-04-08T06:54:55.403Z,5.50
2023-04-08T06:57:21.779Z,5.10
2023-04-08T06:59:48.262Z,4.78
2023-04-08T07:02:15.807Z,5.10
2023-04-08T07:04:43.532Z,5.18
2023-04-08T07:07:11.344Z,5.72
2023-04-08T07:09:37.698Z,4.97
2023-04-08T07:12:04.942Z,5.78
2023-04-08T07:14:31.411Z,5.47
2023-04-08T07:16:57.768Z,5.28
2023-04-08T07:19:24.576Z,5.50
2023-04-08T07:21:52.518Z,4.68
2023-04-08T07:24:19.005Z,5.28
2023-04-08T07:26:45.293Z,4.68
2023-04-08T07:29:11.707Z,5.10
2023-04-08T07:31:38.008Z,5.18
2023-04-08T07:34:04.458Z,5.82
2023-04-08T07:36:30.798Z,6.57
2023-04-08T07:38:57.145Z,6.53
2023-04-08T07:41:23.502Z,6.45
2023-04-08T07:43:49.821Z,6.88
2023-04-08T07:46:16.220Z,7.60
2023-04-08T07:48:42.585Z,7.65
2023-04-08T07:51:11.315Z,8.38
2023-04-08T07:53:38.745Z,8.75
2023-04-08T07:56:10.662Z,8.35
2023-04-08T07:58:37.015Z,8.43
2023-04-08T08:01:03.604Z,9.38
2023-04-08T08:03:31.888Z,9.77
2023-04-08T08:05:59.613Z,10.15
2023-04-08T08:08:25.844Z,9.88
2023-04-08T08:10:52.154Z,9.57
2023-04-08T08:13:21.139Z,9.98
2023-04-08T08:15:52.496Z,9.95
2023-04-08T08:18:18.951Z,10.15
2023-04-08T08:20:45.320Z,10.35
2023-04-08T08:23:11.913Z,10.93
2023-04-08T08:25:38.245Z,11.02
2023-04-08T08:28:04.705Z,11.40
2023-04-08T08:30:32.312Z,11.80
2023-04-08T08:33:00.738Z,11.27
2023-04-08T08:35:27.279Z,11.65
2023-04-08T08:37:53.707Z,11.95
2023-04-08T08:40:20.338Z,11.25
2023-04-08T08:42:52.951Z,11.43
2023-04-08T08:45:19.748Z,12.80
2023-04-08T08:47:46.245Z,13.27
2023-04-08T08:50:12.655Z,13.10
2023-04-08T08:52:38.953Z,13.55
2023-04-08T08:55:21.541Z,12.10
2023-04-08T09:00:18.444Z,13.25
2023-04-08T09:02:44.907Z,13.18
2023-04-08T09:05:11.620Z,13.30
2023-04-08T09:07:40.653Z,13.82
2023-04-08T09:10:07.315Z,13.23
2023-04-08T09:12:33.681Z,13.70
2023-04-08T09:15:03.736Z,14.18
2023-04-08T09:17:34.187Z,13.77
2023-04-08T09:20:09.769Z,13.68
2023-04-08T09:22:54.777Z,14.20
2023-04-08T09:25:25.513Z,14.05
2023-04-08T09:27:53.060Z,14.05
2023-04-08T09:30:19.941Z,13.15
2023-04-08T09:33:07.314Z,13.57
2023-04-08T09:35:33.784Z,14.48
2023-04-08T09:38:01.067Z,13.77
2023-04-08T09:40:27.750Z,13.60
2023-04-08T09:42:55.008Z,14.02
2023-04-08T09:45:21.680Z,13.68
2023-04-08T09:47:52.221Z,13.85
2023-04-08T09:50:20.126Z,13.98
2023-04-08T09:52:50.268Z,13.52
2023-04-08T09:55:19.756Z,13.50
2023-04-08T09:58:08.729Z,13.27
2023-04-08T10:00:38.852Z,13.13
2023-04-08T10:03:05.323Z,13.52
2023-04-08T10:05:31.888Z,13.45
2023-04-08T10:07:58.330Z,13.73
2023-04-08T10:10:25.387Z,13.70
2023-04-08T10:12:51.851Z,13.60
2023-04-08T10:15:27.319Z,13.85
2023-04-08T10:17:54.342Z,13.77
2023-04-08T10:20:39.128Z,14.48
2023-04-08T10:23:09.922Z,13.85
2023-04-08T10:25:39.498Z,14.38
2023-04-08T10:28:15.352Z,13.95
2023-04-08T10:30:44.523Z,13.48
2023-04-08T10:33:33.572Z,13.45
2023-04-08T10:36:12.698Z,14.48
2023-04-08T10:38:39.464Z,14.15
2023-04-08T10:41:05.840Z,13.25
2023-04-08T10:43:32.918Z,13.00
2023-04-08T10:45:59.264Z,12.93
2023-04-08T10:48:26.427Z,12.50
2023-04-08T10:50:54.317Z,13.00
2023-04-08T10:53:33.692Z,14.23
2023-04-08T10:56:04.923Z,12.20
2023-04-08T10:58:31.232Z,12.90
2023-04-08T11:01:03.016Z,13.60
2023-04-08T11:03:33.644Z,11.90
2023-04-08T11:06:00.637Z,12.90
2023-04-08T11:08:33.470Z,13.27
2023-04-08T11:11:04.375Z,12.93
2023-04-08T11:13:31.812Z,12.85
2023-04-08T11:15:58.669Z,12.65
2023-04-08T11:18:25.121Z,13.63
2023-04-08T11:20:52.105Z,12.98
2023-04-08T11:23:18.670Z,12.60
2023-04-08T11:25:45.742Z,12.20
2023-04-08T11:28:12.987Z,13.45
2023-04-08T11:30:40.439Z,12.43
2023-04-08T11:33:10.169Z,12.27
2023-04-08T11:35:40.382Z,12.75
2023-04-08T11:38:06.792Z,12.20
2023-04-08T11:40:33.094Z,12.27
2023-04-08T11:42:59.401Z,12.23
2023-04-08T11:45:26.556Z,12.57
2023-04-08T11:47:54.072Z,12.55
2023-04-08T11:50:24.695Z,11.82
2023-04-08T11:52:51.511Z,11.75
2023-04-08T11:55:25.086Z,11.65
2023-04-08T11:57:52.768Z,11.57
2023-04-08T12:00:19.679Z,11.70
2023-04-08T12:02:47.996Z,10.50
2023-04-08T12:05:14.999Z,11.00
2023-04-08T12:07:41.579Z,10.23
2023-04-08T12:10:08.294Z,10.05
2023-04-08T12:12:34.777Z,10.43
2023-04-08T12:15:01.180Z,9.93
2023-04-08T12:17:27.617Z,9.60
2023-04-08T12:19:53.938Z,9.38
2023-04-08T12:22:20.510Z,9.57
2023-04-08T12:24:46.901Z,9.63
2023-04-08T12:27:13.247Z,9.50
2023-04-08T12:29:39.900Z,9.07
2023-04-08T12:32:06.213Z,8.85
2023-04-08T12:34:32.792Z,9.23
2023-04-08T12:36:59.562Z,9.85
2023-04-08T12:39:25.865Z,8.90
2023-04-08T12:41:52.354Z,8.57
2023-04-08T12:44:19.225Z,8.20
2023-04-08T12:46:46.095Z,8.38
2023-04-08T12:49:12.521Z,7.57
2023-04-08T12:51:40.084Z,8.43
2023-04-08T12:54:06.420Z,8.07
2023-04-08T12:56:33.011Z,8.00
2023-04-08T12:58:59.585Z,8.05
2023-04-08T13:01:25.985Z,7.82
2023-04-08T13:03:52.631Z,7.20
2023-04-08T13:06:19.091Z,7.40
2023-04-08T13:08:45.469Z,7.30
2023-04-08T13:11:11.806Z,7.72
2023-04-08T13:13:38.168Z,7.65
2023-04-08T13:16:04.532Z,7.22
2023-04-08T13:18:31.046Z,7.22
2023-04-08T13:20:58.560Z,7.32
2023-04-08T13:23:24.848Z,7.18
2023-04-08T13:25:51.637Z,7.57
2023-04-08T13:28:17.908Z,6.65
2023-04-08T13:30:44.250Z,7.18
2023-04-08T13:33:10.844Z,7.88
2023-04-08T13:35:37.251Z,7.00
2023-04-08T13:38:16.302Z,6.43
2023-04-08T13:40:43.728Z,7.07
2023-04-08T13:43:10.051Z,6.88
2023-04-08T13:45:36.451Z,7.00
2023-04-08T13:48:02.836Z,7.35
2023-04-08T13:50:29.151Z,6.03
2023-04-08T13:52:57.056Z,6.47
2023-04-08T13:55:23.418Z,7.28
2023-04-08T13:57:49.775Z,6.45
2023-04-08T14:00:16.624Z,6.78
2023-04-08T14:02:43.143Z,6.00
2023-04-08T14:05:09.703Z,6.88
2023-04-08T14:07:35.998Z,5.85
2023-04-08T14:10:02.339Z,6.32
2023-04-08T14:12:28.662Z,6.07
2023-04-08T14:14:55.110Z,6.82
2023-04-08T14:17:21.402Z,6.57
2023-04-08T14:19:50.006Z,5.68
2023-04-08T14:22:16.968Z,5.75
2023-04-08T14:24:43.487Z,5.75
2023-04-08T14:27:09.835Z,6.13
2023-04-08T14:29:36.158Z,6.50
2023-04-08T14:32:02.502Z,6.25
2023-04-08T14:34:28.824Z,6.50
2023-04-08T14:36:55.100Z,6.05
2023-04-08T14:39:21.721Z,6.65
2023-04-08T14:41:48.032Z,6.18
2023-04-08T14:44:14.344Z,5.38
2023-04-08T14:46:40.765Z,5.00
2023-04-08T14:49:07.254Z,5.85
2023-04-08T14:51:33.718Z,5.75
2023-04-08T14:54:00.167Z,5.75
2023-04-08T14:56:26.485Z,5.88
2023-04-08T14:58:52.957Z,5.50
2023-04-08T15:01:19.438Z,5.95
2023-04-08T15:03:46.322Z,5.50
2023-04-08T15:06:16.993Z,5.90
2023-04-08T15:08:43.934Z,5.15
2023-04-08T15:11:10.385Z,5.50
2023-04-08T15:13:36.685Z,5.07
2023-04-08T15:16:03.147Z,5.30
2023-04-08T15:18:29.512Z,5.20
2023-04-08T15:20:56.476Z,4.93
2023-04-08T15:23:23.074Z,4.97
2023-04-08T15:25:49.543Z,5.22
2023-04-08T15:28:16.478Z,4.90
2023-04-08T15:30:43.361Z,5.30
2023-04-08T15:33:09.857Z,4.93
2023-04-08T15:35:37.973Z,4.65
2023-04-08T15:38:04.302Z,4.50
2023-04-08T15:40:33.767Z,4.78
2023-04-08T15:43:00.334Z,4.30
2023-04-08T15:45:26.648Z,4.70
2023-04-08T15:47:53.101Z,4.82
2023-04-08T15:50:19.436Z,4.40
2023-04-08T15:52:45.926Z,4.90
2023-04-08T15:55:12.319Z,4.13
2023-04-08T15:57:38.954Z,4.30
2023-04-08T16:00:11.952Z,4.32
2023-04-08T16:02:38.727Z,4.20
2023-04-08T16:05:05.411Z,4.30
2023-04-08T16:07:31.715Z,4.68
2023-04-08T16:09:58.997Z,4.40
2023-04-08T16:12:25.546Z,4.10
2023-04-08T16:14:52.065Z,4.30
2023-04-08T16:17:18.310Z,4.50
2023-04-08T16:19:47.276Z,4.25
2023-04-08T16:22:13.665Z,4.25
2023-04-08T16:24:40.067Z,4.10
2023-04-08T16:27:06.657Z,3.85
2023-04-08T16:29:32.974Z,4.20
2023-04-08T16:31:59.398Z,4.55
2023-04-08T16:34:44.825Z,4.15
2023-04-08T16:37:12.259Z,3.95
2023-04-08T16:39:39.502Z,4.45
2023-04-08T16:42:05.954Z,4.13
2023-04-08T16:44:32.272Z,3.80
2023-04-08T16:46:58.513Z,3.80
2023-04-08T16:49:24.935Z,4.10
2023-04-08T16:51:51.205Z,4.10
2023-04-08T16:54:17.497Z,3.90
2023-04-08T16:56:45.664Z,4.25
2023-04-08T16:59:12.244Z,4.18
2023-04-08T17:01:38.619Z,3.80
2023-04-08T17:04:05.116Z,3.92
2023-04-08T17:06:31.658Z,4.65
2023-04-08T17:08:58.022Z,4.28
2023-04-08T17:11:24.346Z,3.85
2023-04-08T17:14:02.819Z,4.72
2023-04-08T17:16:29.125Z,4.65
2023-04-08T17:18:55.636Z,5.13
2023-04-08T17:21:21.958Z,4.88
2023-04-08T17:23:48.408Z,5.32
2023-04-08T17:26:14.856Z,5.13
2023-04-08T17:28:41.201Z,5.72
2023-04-08T17:31:07.545Z,5.78
2023-04-08T17:33:34.055Z,6.15
2023-04-08T17:36:00.430Z,5.95
2023-04-08T17:38:26.822Z,5.70
2023-04-08T17:40:53.241Z,6.07
2023-04-08T17:43:19.664Z,6.35
2023-04-08T17:45:46.842Z,6.43
2023-04-08T17:48:16.318Z,5.97
2023-04-08T17:50:45.515Z,6.20
2023-04-08T17:53:11.902Z,7.00
2023-04-08T17:55:38.305Z,6.20
2023-04-08T17:58:04.765Z,6.20
2023-04-08T18:00:31.423Z,5.85
2023-04-08T18:02:57.907Z,6.63
2023-04-08T18:05:38.016Z,6.70
2023-04-08T18:08:04.588Z,6.15
2023-04-08T18:10:31.005Z,5.78
2023-04-08T18:13:10.337Z,5.78
2023-04-08T18:15:38.424Z,5.93
2023-04-08T18:18:04.986Z,5.53
2023-04-08T18:21:00.445Z,6.38
2023-04-08T18:26:11.126Z,6.00
2023-04-08T18:28:37.491Z,6.10
2023-04-08T18:31:03.911Z,6.40
2023-04-08T18:33:30.517Z,6.50
2023-04-08T18:35:59.531Z,6.75
2023-04-08T18:38:26.050Z,7.15
2023-04-08T18:40:53.394Z,6.70
2023-04-08T18:44:31.097Z,6.38
2023-04-08T18:46:57.390Z,6.57
2023-04-08T18:49:26.665Z,7.05
2023-04-08T18:52:02.362Z,6.97
2023-04-08T18:54:30.027Z,7.00
2023-04-08T18:56:56.540Z,6.53
2023-04-08T18:59:23.485Z,6.63
2023-04-08T19:01:49.964Z,7.38
2023-04-08T19:04:18.108Z,6.82
2023-04-08T19:06:44.903Z,6.72
2023-04-08T19:09:11.694Z,6.75
2023-04-08T19:11:40.368Z,6.82
2023-04-08T19:14:08.427Z,6.45
2023-04-08T19:16:34.897Z,6.75
2023-04-08T19:19:03.990Z,6.85
2023-04-08T19:21:31.659Z,6.28
2023-04-08T19:23:57.982Z,6.60
2023-04-08T19:26:24.301Z,6.53
2023-04-08T19:28:50.719Z,7.82
2023-04-08T19:31:17.626Z,6.75
2023-04-08T19:33:44.476Z,8.15
2023-04-08T19:36:11.434Z,8.02
2023-04-08T19:38:37.956Z,8.38
2023-04-08T19:41:04.270Z,8.50
2023-04-08T19:43:30.610Z,9.07
2023-04-08T19:45:57.280Z,9.38
2023-04-08T19:48:24.006Z,8.75
2023-04-08T19:50:52.110Z,9.43
2023-04-08T19:53:18.716Z,10.50
2023-04-08T19:55:45.750Z,10.82
2023-04-08T19:58:12.012Z,9.70
2023-04-08T20:00:38.550Z,10.23
2023-04-08T20:03:06.731Z,10.57
2023-04-08T20:05:33.415Z,11.43
2023-04-08T20:07:59.716Z,11.30
2023-04-08T20:10:26.113Z,11.85
2023-04-08T20:12:52.720Z,11.52
2023-04-08T20:15:24.610Z,12.38
2023-04-08T20:17:52.568Z,12.38
2023-04-08T20:20:18.933Z,12.23
2023-04-08T20:22:46.414Z,12.45
2023-04-08T20:25:12.719Z,13.50
2023-04-08T20:27:39.019Z,13.80
2023-04-08T20:30:06.046Z,12.48
2023-04-08T20:32:32.302Z,13.10
2023-04-08T20:34:59.808Z,13.00
2023-04-08T20:37:26.259Z,12.55
2023-04-08T20:39:52.655Z,12.63
2023-04-08T20:42:18.896Z,12.43
2023-04-08T20:44:45.335Z,12.27
2023-04-08T20:47:11.767Z,12.48
2023-04-08T20:49:40.938Z,12.02
2023-04-08T20:52:07.217Z,12.32
2023-04-08T20:54:33.533Z,12.35
2023-04-08T20:56:59.854Z,13.02
2023-04-08T20:59:26.116Z,12.05
2023-04-08T21:01:53.743Z,10.98
2023-04-08T21:04:20.793Z,12.02
2023-04-08T21:06:48.214Z,12.13
2023-04-08T21:09:14.903Z,11.57
2023-04-08T21:11:41.320Z,12.18
2023-04-08T21:14:07.677Z,12.50
2023-04-08T21:16:34.143Z,12.63
2023-04-08T21:19:01.924Z,13.13
2023-04-08T21:21:28.383Z,12.35
2023-04-08T21:23:54.733Z,12.77
2023-04-08T21:26:21.884Z,12.27
2023-04-08T21:28:49.986Z,11.38
2023-04-08T21:31:16.666Z,12.80
2023-04-08T21:33:42.978Z,12.98
2023-04-08T21:36:09.418Z,12.18
2023-04-08T21:38:35.982Z,11.60
2023-04-08T21:41:02.273Z,12.00
2023-04-08T21:43:28.629Z,11.20
2023-04-08T21:45:54.943Z,11.02
2023-04-08T21:48:21.430Z,11.70
2023-04-08T21:50:47.777Z,11.77
2023-04-08T21:53:14.156Z,11.88
2023-04-08T21:55:40.618Z,11.45
2023-04-08T21:58:06.921Z,11.13
2023-04-08T22:00:33.240Z,12.63
2023-04-08T22:02:59.725Z,13.55
2023-04-08T22:05:26.403Z,11.93
2023-04-08T22:07:52.676Z,11.68
2023-04-08T22:10:19.005Z,12.27
2023-04-08T22:12:45.845Z,12.13
2023-04-08T22:15:12.141Z,12.23
2023-04-08T22:17:38.571Z,12.40
2023-04-08T22:20:05.300Z,12.65
2023-04-08T22:22:31.650Z,11.18
2023-04-08T22:24:57.897Z,12.07
2023-04-08T22:27:24.205Z,12.50
2023-04-08T22:29:50.700Z,10.95
2023-04-08T22:32:18.147Z,11.25
2023-04-08T22:34:44.445Z,10.85
2023-04-08T22:37:10.700Z,11.00
2023-04-08T22:39:37.064Z,10.63
2023-04-08T22:42:03.401Z,10.73
2023-04-08T22:44:29.650Z,10.07
2023-04-08T22:46:56.243Z,10.65
2023-04-08T22:49:22.514Z,10.15
2023-04-08T22:51:49.245Z,10.48
2023-04-08T22:54:15.711Z,9.82
2023-04-08T22:56:42.093Z,9.95
2023-04-08T22:59:08.350Z,9.73
2023-04-08T23:01:35.796Z,9.68
2023-04-08T23:04:02.174Z,9.63
2023-04-08T23:06:28.819Z,9.13
2023-04-08T23:08:55.279Z,9.75
2023-04-08T23:11:21.764Z,8.98
2023-04-08T23:13:48.379Z,8.85
2023-04-08T23:16:14.778Z,8.70
2023-04-08T23:18:41.147Z,8.23
2023-04-08T23:21:07.421Z,9.65
2023-04-08T23:23:33.737Z,8.93
2023-04-08T23:26:00.095Z,9.30
2023-04-08T23:28:26.412Z,8.57
2023-04-08T23:30:52.782Z,8.90
2023-04-08T23:33:19.147Z,9.25
2023-04-08T23:35:45.436Z,8.52
2023-04-08T23:38:12.830Z,8.60
2023-04-08T23:40:39.409Z,8.07
2023-04-08T23:43:05.731Z,8.70
2023-04-08T23:45:32.078Z,8.00
2023-04-08T23:47:58.451Z,8.85
2023-04-08T23:50:24.734Z,7.85
2023-04-08T23:52:51.262Z,8.70
2023-04-08T23:55:17.622Z,8.80
2023-04-08T23:57:44.047Z,8.43
